createdAt,value
2018-05-12T00:01:32.151Z,89.66
2018-05-12T00:04:01.268Z,89.58
2018-05-12T00:06:30.307Z,90.52
2018-05-12T00:09:00.529Z,89.41
2018-05-12T00:11:29.789Z,89.28
2018-05-12T00:13:59.525Z,88.26
2018-05-12T00:16:28.603Z,89.40
2018-05-12T00:18:57.723Z,89.01
2018-05-12T00:21:27.520Z,89.18
2018-05-12T00:23:56.574Z,89.02
2018-05-12T00:26:25.644Z,90.02
2018-05-12T00:28:54.736Z,89.70
2018-05-12T00:31:23.708Z,89.37
2018-05-12T00:33:53.546Z,89.59
2018-05-12T00:36:22.849Z,90.50
2018-05-12T00:38:51.992Z,89.91
2018-05-12T00:41:21.109Z,90.42
2018-05-12T00:43:50.524Z,90.78
2018-05-12T00:46:19.645Z,90.00
2018-05-12T00:48:48.597Z,89.44
2018-05-12T00:51:18.193Z,89.70
2018-05-12T00:53:47.368Z,90.53
2018-05-12T00:56:16.837Z,90.22
2018-05-12T00:58:45.835Z,90.88
2018-05-12T01:01:14.999Z,89.38
2018-05-12T01:03:44.271Z,90.17
2018-05-12T01:06:13.279Z,90.53
2018-05-12T01:08:42.654Z,89.58
2018-05-12T01:11:11.884Z,90.28
2018-05-12T01:13:41.079Z,90.32
2018-05-12T01:16:10.225Z,90.06
2018-05-12T01:18:39.553Z,89.78
2018-05-12T01:21:08.732Z,89.79
2018-05-12T01:23:37.949Z,89.48
2018-05-12T01:26:07.020Z,88.58
2018-05-12T01:28:36.461Z,88.22
2018-05-12T01:31:06.058Z,88.41
2018-05-12T01:33:35.358Z,87.76
2018-05-12T01:36:04.520Z,87.29
2018-05-12T01:38:33.524Z,87.03
2018-05-12T01:41:03.303Z,87.20
2018-05-12T01:43:32.766Z,86.78
2018-05-12T01:46:01.870Z,85.18
2018-05-12T01:48:31.065Z,86.36
2018-05-12T01:51:00.514Z,86.09
2018-05-12T01:53:29.476Z,85.83
2018-05-12T01:55:58.658Z,85.04
2018-05-12T01:58:27.975Z,85.14
2018-05-12T02:00:57.031Z,84.52
2018-05-12T02:03:26.328Z,84.88
2018-05-12T02:05:55.307Z,84.33
2018-05-12T02:08:24.444Z,82.79
2018-05-12T02:10:53.709Z,82.86
2018-05-12T02:13:23.071Z,82.21
2018-05-12T02:15:52.287Z,81.52
2018-05-12T02:18:21.245Z,81.09
2018-05-12T02:20:50.642Z,80.92
2018-05-12T02:23:19.715Z,79.87
2018-05-12T02:25:48.872Z,79.83
2018-05-12T02:28:18.182Z,79.93
2018-05-12T02:30:47.416Z,79.66
2018-05-12T02:33:16.532Z,80.19
2018-05-12T02:35:45.708Z,80.47
2018-05-12T02:38:14.903Z,80.24
2018-05-12T02:40:44.337Z,79.59
2018-05-12T02:43:13.437Z,79.63
2018-05-12T02:45:42.661Z,78.47
2018-05-12T02:48:11.754Z,78.01
2018-05-12T02:50:40.855Z,79.59
2018-05-12T02:53:10.033Z,79.18
2018-05-12T02:55:38.996Z,78.99
2018-05-12T02:58:08.060Z,78.59
2018-05-12T03:00:37.571Z,78.33
2018-05-12T03:03:06.655Z,78.93
2018-05-12T03:05:35.687Z,79.76
2018-05-12T03:08:05.207Z,79.49
2018-05-12T03:10:34.284Z,79.27
2018-05-12T03:13:03.442Z,79.21
2018-05-12T03:15:32.913Z,80.45
2018-05-12T03:18:01.925Z,79.81
2018-05-12T03:20:30.963Z,79.26
2018-05-12T03:23:00.101Z,79.28
2018-05-12T03:25:29.393Z,79.72
2018-05-12T03:27:58.644Z,79.20
2018-05-12T03:30:27.945Z,78.06
2018-05-12T03:32:58.027Z,77.61
2018-05-12T03:35:27.013Z,78.79
2018-05-12T03:37:56.054Z,77.72
2018-05-12T03:40:25.172Z,78.28
2018-05-12T03:42:54.281Z,78.23
2018-05-12T03:45:23.368Z,78.53
2018-05-12T03:47:52.601Z,78.12
2018-05-12T03:50:22.054Z,75.36
2018-05-12T03:52:52.213Z,76.78
2018-05-12T03:55:21.187Z,76.91
2018-05-12T03:57:51.149Z,75.57
2018-05-12T04:00:20.282Z,73.70
2018-05-12T04:02:49.428Z,76.13
2018-05-12T04:05:29.841Z,74.64
2018-05-12T04:08:10.208Z,74.20
2018-05-12T04:10:43.926Z,74.19
2018-05-12T04:13:12.997Z,74.42
2018-05-12T04:15:42.172Z,73.51
2018-05-12T04:18:11.216Z,73.00
2018-05-12T04:20:40.537Z,73.91
2018-05-12T04:23:09.816Z,74.19
2018-05-12T04:25:39.065Z,73.76
2018-05-12T04:28:08.373Z,73.58
2018-05-12T04:30:37.516Z,74.33
2018-05-12T04:33:06.978Z,74.11
2018-05-12T04:35:36.304Z,71.38
2018-05-12T04:38:05.589Z,72.78
2018-05-12T04:40:34.847Z,71.61
2018-05-12T04:43:04.064Z,71.66
2018-05-12T04:45:33.333Z,71.42
2018-05-12T04:48:02.569Z,70.93
2018-05-12T04:50:31.905Z,71.48
2018-05-12T04:53:00.964Z,72.30
2018-05-12T04:55:29.972Z,71.69
2018-05-12T04:57:59.024Z,71.88
2018-05-12T05:00:28.339Z,69.24
2018-05-12T05:02:57.794Z,70.25
2018-05-12T05:05:26.832Z,68.97
2018-05-12T05:07:56.295Z,70.20
2018-05-12T05:10:25.265Z,70.61
2018-05-12T05:12:54.227Z,69.77
2018-05-12T05:15:23.441Z,70.01
2018-05-12T05:17:52.561Z,69.70
2018-05-12T05:20:21.881Z,68.84
2018-05-12T05:22:51.032Z,68.33
2018-05-12T05:25:20.153Z,68.13
2018-05-12T05:27:49.216Z,68.03
2018-05-12T05:30:18.151Z,68.11
2018-05-12T05:32:47.096Z,68.41
2018-05-12T05:35:16.247Z,66.88
2018-05-12T05:37:45.476Z,67.09
2018-05-12T05:40:14.719Z,65.11
2018-05-12T05:42:43.716Z,66.02
2018-05-12T05:45:12.936Z,65.18
2018-05-12T05:47:41.876Z,63.60
2018-05-12T05:50:11.006Z,63.54
2018-05-12T05:52:40.145Z,62.61
2018-05-12T05:55:09.240Z,64.67
2018-05-12T05:57:38.589Z,62.47
2018-05-12T06:00:07.712Z,62.68
2018-05-12T06:02:36.969Z,61.53
2018-05-12T06:05:06.204Z,62.92
2018-05-12T06:07:35.691Z,61.43
2018-05-12T06:10:05.175Z,61.12
2018-05-12T06:12:34.227Z,59.90
2018-05-12T06:15:03.216Z,59.74
2018-05-12T06:17:32.218Z,60.06
2018-05-12T06:20:01.300Z,58.84
2018-05-12T06:22:30.522Z,58.69
2018-05-12T06:24:59.765Z,59.87
2018-05-12T06:27:28.877Z,57.59
2018-05-12T06:29:58.036Z,57.26
2018-05-12T06:32:27.145Z,55.82
2018-05-12T06:34:56.548Z,53.23
2018-05-12T06:37:25.541Z,53.38
2018-05-12T06:39:54.793Z,52.24
2018-05-12T06:42:24.134Z,52.45
2018-05-12T06:44:53.273Z,51.26
2018-05-12T06:47:22.425Z,51.80
2018-05-12T06:49:51.617Z,52.47
2018-05-12T06:52:20.773Z,51.53
2018-05-12T06:54:49.753Z,48.51
2018-05-12T06:57:18.780Z,49.38
2018-05-12T06:59:47.776Z,50.44
2018-05-12T07:02:16.885Z,49.65
2018-05-12T07:04:45.803Z,47.29
2018-05-12T07:07:15.053Z,46.63
2018-05-12T07:09:44.126Z,47.79
2018-05-12T07:12:13.380Z,42.60
2018-05-12T07:14:42.406Z,41.91
2018-05-12T07:17:11.444Z,39.24
2018-05-12T07:19:40.653Z,39.75
2018-05-12T07:22:09.882Z,41.03
2018-05-12T07:24:38.848Z,38.99
2018-05-12T07:27:07.884Z,38.57
2018-05-12T07:29:36.944Z,38.56
2018-05-12T07:32:05.995Z,38.07
2018-05-12T07:34:35.301Z,39.11
2018-05-12T07:37:04.899Z,36.65
2018-05-12T07:39:34.058Z,37.63
2018-05-12T07:42:03.064Z,36.98
2018-05-12T07:44:32.181Z,35.64
2018-05-12T07:47:03.082Z,36.56
2018-05-12T07:49:32.292Z,37.77
2018-05-12T07:52:01.304Z,37.15
2018-05-12T07:54:30.986Z,39.25
2018-05-12T07:57:00.092Z,39.26
2018-05-12T07:59:29.346Z,39.43
2018-05-12T08:01:58.741Z,37.31
2018-05-12T08:04:27.810Z,38.68
2018-05-12T08:06:56.915Z,39.30
2018-05-12T08:09:26.130Z,36.83
2018-05-12T08:11:55.241Z,37.92
2018-05-12T08:14:24.413Z,38.36
2018-05-12T08:16:53.608Z,36.94
2018-05-12T08:19:22.768Z,36.25
2018-05-12T08:21:51.804Z,37.19
2018-05-12T08:24:21.817Z,36.44
2018-05-12T08:26:50.917Z,37.13
2018-05-12T08:29:20.284Z,37.88
2018-05-12T08:31:49.468Z,37.89
2018-05-12T08:34:18.643Z,39.19
2018-05-12T08:36:47.860Z,42.23
2018-05-12T08:39:16.986Z,43.28
2018-05-12T08:41:46.063Z,43.76
2018-05-12T08:44:15.429Z,43.53
2018-05-12T08:46:44.468Z,44.27
2018-05-12T08:49:13.793Z,44.60
2018-05-12T08:51:42.976Z,45.86
2018-05-12T08:54:12.206Z,45.14
2018-05-12T08:56:41.540Z,44.54
2018-05-12T08:59:11.218Z,43.56
2018-05-12T09:01:40.263Z,44.10
2018-05-12T09:04:09.243Z,45.39
2018-05-12T09:06:38.631Z,45.77
2018-05-12T09:09:07.740Z,46.59
2018-05-12T09:11:37.083Z,49.91
2018-05-12T09:14:06.132Z,47.48
2018-05-12T09:16:35.347Z,46.72
2018-05-12T09:19:04.805Z,47.78
2018-05-12T09:21:33.923Z,45.97
2018-05-12T09:24:03.165Z,46.68
2018-05-12T09:26:32.365Z,48.93
2018-05-12T09:29:01.402Z,47.68
2018-05-12T09:31:30.647Z,49.88
2018-05-12T09:33:59.854Z,50.94
2018-05-12T09:36:28.877Z,52.88
2018-05-12T09:38:57.917Z,50.41
2018-05-12T09:41:27.061Z,50.83
2018-05-12T09:43:56.024Z,49.07
2018-05-12T09:46:25.085Z,50.54
2018-05-12T09:48:54.188Z,50.40
2018-05-12T09:51:23.128Z,48.89
2018-05-12T09:53:52.489Z,49.21
2018-05-12T09:56:21.508Z,47.99
2018-05-12T09:58:50.563Z,49.42
2018-05-12T10:01:19.644Z,52.47
2018-05-12T10:03:48.692Z,50.49
2018-05-12T10:06:17.902Z,50.56
2018-05-12T10:08:47.183Z,52.33
2018-05-12T10:11:16.574Z,52.53
2018-05-12T10:13:45.613Z,50.32
2018-05-12T10:16:14.885Z,50.21
2018-05-12T10:18:44.105Z,51.97
2018-05-12T10:21:13.209Z,52.52
2018-05-12T10:23:42.446Z,54.79
2018-05-12T10:26:11.468Z,54.83
2018-05-12T10:28:40.770Z,51.85
2018-05-12T10:31:09.872Z,53.06
2018-05-12T10:33:39.120Z,54.64
2018-05-12T10:36:08.264Z,55.29
2018-05-12T10:38:37.661Z,55.30
2018-05-12T10:41:06.794Z,53.75
2018-05-12T10:43:35.933Z,52.70
2018-05-12T10:46:05.034Z,51.64
2018-05-12T10:48:34.037Z,52.62
2018-05-12T10:51:03.362Z,52.53
2018-05-12T10:53:32.484Z,51.49
2018-05-12T10:56:01.467Z,54.28
2018-05-12T10:58:30.476Z,51.31
2018-05-12T11:00:59.585Z,51.16
2018-05-12T11:03:28.580Z,53.02
2018-05-12T11:05:57.737Z,50.83
2018-05-12T11:08:26.707Z,51.02
2018-05-12T11:10:55.696Z,47.90
2018-05-12T11:13:24.716Z,48.79
2018-05-12T11:15:53.678Z,49.46
2018-05-12T11:18:22.740Z,47.88
2018-05-12T11:20:51.776Z,47.76
2018-05-12T11:23:20.902Z,48.59
2018-05-12T11:25:49.901Z,50.55
2018-05-12T11:28:18.848Z,48.77
2018-05-12T11:30:47.896Z,48.70
2018-05-12T11:33:16.852Z,50.68
2018-05-12T11:35:45.927Z,48.48
2018-05-12T11:38:15.101Z,49.70
2018-05-12T11:40:44.623Z,49.58
2018-05-12T11:43:14.070Z,49.06
2018-05-12T11:45:43.226Z,48.36
2018-05-12T11:48:12.136Z,47.37
2018-05-12T11:50:41.226Z,47.98
2018-05-12T11:53:10.472Z,48.07
2018-05-12T11:55:40.530Z,50.47
2018-05-12T11:58:09.515Z,47.90
2018-05-12T12:00:38.504Z,46.94
2018-05-12T12:03:07.564Z,47.40
2018-05-12T12:05:36.576Z,46.18
2018-05-12T12:08:05.930Z,47.55
2018-05-12T12:10:35.111Z,44.45
2018-05-12T12:13:04.112Z,45.66
2018-05-12T12:15:33.187Z,44.98
2018-05-12T12:18:03.103Z,45.23
2018-05-12T12:20:32.169Z,44.84
2018-05-12T12:23:01.490Z,42.32
2018-05-12T12:25:30.754Z,43.47
2018-05-12T12:27:59.928Z,43.11
2018-05-12T12:30:29.056Z,44.07
2018-05-12T12:32:58.204Z,42.98
2018-05-12T12:35:27.542Z,43.29
2018-05-12T12:37:56.568Z,42.38
2018-05-12T12:40:25.998Z,40.98
2018-05-12T12:42:55.048Z,39.08
2018-05-12T12:45:24.136Z,39.34
2018-05-12T12:47:53.101Z,39.21
2018-05-12T12:50:22.212Z,41.38
2018-05-12T12:52:51.382Z,39.12
2018-05-12T12:55:20.483Z,39.81
2018-05-12T12:57:49.631Z,40.45
2018-05-12T13:00:18.868Z,38.36
2018-05-12T13:02:48.046Z,37.64
2018-05-12T13:05:17.064Z,38.33
2018-05-12T13:07:46.280Z,37.44
2018-05-12T13:10:15.305Z,39.55
2018-05-12T13:12:45.321Z,40.33
2018-05-12T13:15:15.502Z,37.69
2018-05-12T13:17:44.490Z,37.97
2018-05-12T13:20:13.516Z,35.26
2018-05-12T13:22:42.613Z,36.17
2018-05-12T13:25:12.057Z,32.33
2018-05-12T13:27:41.028Z,32.20
2018-05-12T13:30:10.281Z,30.34
2018-05-12T13:32:39.314Z,29.38
2018-05-12T13:35:08.411Z,29.03
2018-05-12T13:37:37.663Z,30.45
2018-05-12T13:40:06.708Z,30.40
2018-05-12T13:42:35.772Z,28.88
2018-05-12T13:45:04.985Z,31.17
2018-05-12T13:47:34.217Z,29.42
2018-05-12T13:50:03.420Z,29.71
2018-05-12T13:52:32.641Z,30.47
2018-05-12T13:55:01.636Z,30.18
2018-05-12T13:57:30.873Z,31.33
2018-05-12T14:00:00.013Z,31.49
2018-05-12T14:02:29.122Z,33.84
2018-05-12T14:04:58.124Z,31.91
2018-05-12T14:07:27.485Z,31.02
2018-05-12T14:09:56.740Z,30.71
2018-05-12T14:12:25.717Z,31.02
2018-05-12T14:14:54.917Z,31.83
2018-05-12T14:17:24.245Z,32.18
2018-05-12T14:19:53.558Z,31.38
2018-05-12T14:22:22.718Z,31.57
2018-05-12T14:24:52.046Z,32.63
2018-05-12T14:27:21.128Z,30.10
2018-05-12T14:29:50.591Z,31.32
2018-05-12T14:32:19.675Z,31.75
2018-05-12T14:34:48.934Z,31.87
2018-05-12T14:37:18.223Z,32.22
2018-05-12T14:39:47.603Z,30.46
2018-05-12T14:42:16.727Z,31.64
2018-05-12T14:44:45.880Z,31.00
2018-05-12T14:47:14.989Z,29.53
2018-05-12T14:49:44.028Z,28.55
2018-05-12T14:52:13.040Z,30.71
2018-05-12T14:54:42.188Z,34.51
2018-05-12T14:57:12.248Z,34.57
2018-05-12T14:59:41.956Z,33.76
2018-05-12T15:02:11.703Z,34.18
2018-05-12T15:04:40.638Z,35.00
2018-05-12T15:07:09.908Z,32.89
2018-05-12T15:09:39.168Z,34.44
2018-05-12T15:12:08.338Z,35.47
2018-05-12T15:14:37.470Z,38.84
2018-05-12T15:17:06.735Z,40.61
2018-05-12T15:19:35.723Z,37.43
2018-05-12T15:22:04.926Z,34.81
2018-05-12T15:24:34.197Z,33.23
2018-05-12T15:27:03.354Z,36.17
2018-05-12T15:29:32.859Z,38.89
2018-05-12T15:32:01.884Z,41.41
2018-05-12T15:34:31.032Z,41.24
2018-05-12T15:37:00.052Z,44.13
2018-05-12T15:39:30.017Z,46.04
2018-05-12T15:41:59.447Z,46.33
2018-05-12T15:44:28.576Z,46.04
2018-05-12T15:46:57.779Z,46.15
2018-05-12T15:49:26.872Z,43.62
2018-05-12T15:51:56.133Z,43.18
2018-05-12T15:54:25.175Z,44.16
2018-05-12T15:56:54.593Z,43.91
2018-05-12T15:59:23.930Z,43.75
2018-05-12T16:01:53.258Z,44.78
2018-05-12T16:04:22.539Z,41.86
2018-05-12T16:06:51.676Z,42.61
2018-05-12T16:09:20.833Z,44.58
2018-05-12T16:11:49.979Z,42.19
2018-05-12T16:14:19.120Z,41.28
2018-05-12T16:16:48.265Z,39.89
2018-05-12T16:19:17.472Z,40.98
2018-05-12T16:21:46.488Z,40.54
2018-05-12T16:24:15.620Z,42.16
2018-05-12T16:26:44.651Z,41.12
2018-05-12T16:29:13.939Z,41.95
2018-05-12T16:31:43.198Z,40.41
2018-05-12T16:34:12.538Z,39.06
2018-05-12T16:36:41.504Z,43.28
2018-05-12T16:39:10.599Z,41.29
2018-05-12T16:41:39.973Z,44.00
2018-05-12T16:44:09.382Z,44.51
2018-05-12T16:46:38.434Z,43.57
2018-05-12T16:49:07.668Z,43.55
2018-05-12T16:51:36.851Z,45.43
2018-05-12T16:54:05.996Z,44.53
2018-05-12T16:56:35.108Z,44.07
2018-05-12T16:59:04.301Z,47.64
2018-05-12T17:01:33.496Z,48.91
2018-05-12T17:04:02.545Z,47.05
2018-05-12T17:06:32.019Z,50.48
2018-05-12T17:09:01.221Z,49.34
2018-05-12T17:11:30.440Z,50.91
2018-05-12T17:13:59.550Z,52.04
2018-05-12T17:16:28.692Z,52.76
2018-05-12T17:18:57.853Z,54.79
2018-05-12T17:21:27.264Z,55.56
2018-05-12T17:23:56.493Z,57.38
2018-05-12T17:26:25.668Z,59.31
2018-05-12T17:28:54.837Z,60.01
2018-05-12T17:31:24.522Z,60.50
2018-05-12T17:33:53.692Z,58.39
2018-05-12T17:36:22.883Z,57.36
2018-05-12T17:38:51.973Z,55.79
2018-05-12T17:41:21.076Z,56.32
2018-05-12T17:43:50.331Z,57.11
2018-05-12T17:46:19.532Z,56.96
2018-05-12T17:48:48.635Z,56.47
2018-05-12T17:51:17.739Z,55.76
2018-05-12T17:53:47.107Z,55.67
2018-05-12T17:56:16.073Z,55.97
2018-05-12T17:58:45.281Z,56.50
2018-05-12T18:01:14.372Z,56.94
2018-05-12T18:03:43.804Z,57.52
2018-05-12T18:06:13.025Z,57.31
2018-05-12T18:08:41.804Z,57.64
2018-05-12T18:11:10.987Z,58.02
2018-05-12T18:13:40.066Z,57.99
2018-05-12T18:16:09.044Z,58.39
2018-05-12T18:18:38.040Z,58.48
2018-05-12T18:21:06.982Z,58.84
2018-05-12T18:23:35.939Z,59.60
2018-05-12T18:26:05.920Z,60.33
2018-05-12T18:28:34.956Z,60.86
2018-05-12T18:31:04.024Z,61.59
2018-05-12T18:33:32.877Z,62.41
2018-05-12T18:36:02.100Z,63.59
2018-05-12T18:38:31.267Z,64.48
2018-05-12T18:41:00.228Z,66.33
2018-05-12T18:43:29.195Z,65.90
2018-05-12T18:45:58.049Z,66.81
2018-05-12T18:48:27.398Z,67.59
2018-05-12T18:50:56.232Z,68.58
2018-05-12T18:53:25.520Z,69.01
2018-05-12T18:55:54.365Z,69.60
2018-05-12T18:58:23.226Z,70.02
2018-05-12T19:00:52.175Z,69.85
2018-05-12T19:03:21.067Z,70.76
2018-05-12T19:05:49.900Z,70.56
2018-05-12T19:08:19.451Z,69.66
2018-05-12T19:10:49.232Z,70.09
2018-05-12T19:13:18.066Z,70.49
2018-05-12T19:15:47.294Z,70.54
2018-05-12T19:18:16.212Z,71.23
2018-05-12T19:20:45.257Z,69.66
2018-05-12T19:23:14.548Z,69.79
2018-05-12T19:25:44.162Z,69.69
2018-05-12T19:28:13.263Z,69.63
2018-05-12T19:30:42.241Z,69.69
2018-05-12T19:33:11.044Z,69.88
2018-05-12T19:35:40.140Z,69.86
2018-05-12T19:38:08.981Z,69.97
2018-05-12T19:40:38.913Z,69.89
2018-05-12T19:43:07.843Z,69.44
2018-05-12T19:45:36.875Z,69.51
2018-05-12T19:48:05.676Z,69.34
2018-05-12T19:50:35.068Z,69.60
2018-05-12T19:53:04.266Z,69.96
2018-05-12T19:55:33.364Z,70.08
2018-05-12T19:58:02.425Z,70.62
2018-05-12T20:00:31.508Z,69.89
2018-05-12T20:03:00.316Z,69.94
2018-05-12T20:05:29.317Z,70.10
2018-05-12T20:07:58.209Z,69.95
2018-05-12T20:10:27.752Z,70.63
2018-05-12T20:12:56.853Z,71.54
2018-05-12T20:15:26.147Z,72.41
2018-05-12T20:17:55.000Z,74.28
2018-05-12T20:20:23.951Z,74.61
2018-05-12T20:22:52.840Z,74.85
2018-05-12T20:25:21.671Z,75.34
2018-05-12T20:27:50.866Z,75.51
2018-05-12T20:30:19.790Z,75.88
2018-05-12T20:32:48.709Z,75.67
2018-05-12T20:35:17.592Z,75.83
2018-05-12T20:37:46.798Z,76.95
2018-05-12T20:40:15.632Z,77.53
2018-05-12T20:42:44.816Z,78.17
2018-05-12T20:45:13.942Z,78.48
2018-05-12T20:47:42.848Z,78.93
2018-05-12T20:50:11.998Z,78.98
2018-05-12T20:52:41.065Z,79.60
2018-05-12T20:55:09.944Z,79.90
2018-05-12T20:57:38.818Z,79.38
2018-05-12T21:00:08.008Z,78.02
2018-05-12T21:02:37.774Z,78.77
2018-05-12T21:05:06.797Z,78.89
2018-05-12T21:07:35.603Z,79.58
2018-05-12T21:10:04.448Z,78.24
2018-05-12T21:12:34.081Z,78.57
2018-05-12T21:15:03.786Z,78.26
2018-05-12T21:17:33.128Z,80.13
2018-05-12T21:20:02.030Z,80.55
2018-05-12T21:22:31.425Z,81.60
2018-05-12T21:25:00.240Z,81.90
2018-05-12T21:27:29.016Z,82.87
2018-05-12T21:29:57.936Z,82.78
2018-05-12T21:32:27.382Z,83.81
2018-05-12T21:34:56.182Z,84.34
2018-05-12T21:37:25.339Z,85.42
2018-05-12T21:39:54.656Z,85.87
2018-05-12T21:42:23.447Z,86.08
2018-05-12T21:44:52.444Z,85.48
2018-05-12T21:47:21.792Z,84.60
2018-05-12T21:49:50.664Z,84.67
2018-05-12T21:52:19.599Z,85.03
2018-05-12T21:54:48.565Z,84.75
2018-05-12T21:57:17.496Z,85.28
2018-05-12T21:59:46.716Z,86.22
2018-05-12T22:02:15.600Z,85.89
2018-05-12T22:04:44.407Z,85.42
2018-05-12T22:07:13.427Z,83.65
2018-05-12T22:09:42.613Z,86.53
2018-05-12T22:12:11.536Z,86.63
2018-05-12T22:14:40.556Z,87.41
2018-05-12T22:17:09.680Z,88.05
2018-05-12T22:19:38.822Z,88.43
2018-05-12T22:22:07.838Z,89.75
2018-05-12T22:24:37.074Z,89.41
2018-05-12T22:27:06.820Z,88.60
2018-05-12T22:29:35.796Z,88.34
2018-05-12T22:32:04.792Z,88.55
2018-05-12T22:34:33.909Z,88.65
2018-05-12T22:37:02.868Z,88.97
2018-05-12T22:39:31.853Z,88.90
2018-05-12T22:42:00.774Z,89.29
2018-05-12T22:44:30.149Z,88.85
2018-05-12T22:46:59.124Z,89.17
2018-05-12T22:49:28.218Z,89.92
2018-05-12T22:51:57.529Z,90.25
2018-05-12T22:54:26.464Z,90.24
2018-05-12T22:56:56.215Z,90.27
2018-05-12T22:59:25.089Z,91.35
2018-05-12T23:01:54.292Z,91.29
2018-05-12T23:04:23.454Z,91.60
2018-05-12T23:06:53.285Z,91.95
2018-05-12T23:09:23.248Z,91.75
2018-05-12T23:11:52.783Z,91.97
2018-05-12T23:14:22.048Z,91.56
2018-05-12T23:16:51.248Z,92.20
2018-05-12T23:19:20.613Z,91.21
2018-05-12T23:21:50.150Z,91.00
2018-05-12T23:24:19.253Z,91.31
2018-05-12T23:26:48.386Z,91.84
2018-05-12T23:29:17.612Z,92.03
2018-05-12T23:31:46.756Z,91.93
2018-05-12T23:34:16.177Z,92.47
2018-05-12T23:36:45.315Z,93.05
2018-05-12T23:39:14.356Z,93.14
2018-05-12T23:41:43.645Z,93.36
2018-05-12T23:44:12.704Z,92.98
2018-05-12T23:46:41.744Z,93.17
2018-05-12T23:49:11.029Z,93.12
2018-05-12T23:51:40.324Z,93.04
2018-05-12T23:54:09.523Z,92.85
2018-05-12T23:56:38.524Z,92.60
2018-05-12T23:59:08.338Z,92.71
